Time;durP1;ratioP1;P1;durP2;ratioP2;P2;SDS_P1;SDS_P2;PMS_P1;PMS_P2;Temp;Humidity;BMP_temperature;BMP_pressure;BME280_temperature;BME280_humidity;BME280_pressure;Samples;Min_cycle;Max_cycle;Signal;HPM_P1;HPM_P2
2022/03/14 00:00:24;;;;;;;21.40;12.20;;;;;;;-0.11;50.75;102242.65;116923;1189;21944;-61
2022/03/14 00:02:53;;;;;;;20.60;11.70;;;;;;;-0.09;50.58;102243.82;116808;1189;23487;-49
2022/03/14 00:05:21;;;;;;;18.90;12.30;;;;;;;-0.03;50.87;102240.06;116821;1189;21881;-57
2022/03/14 00:07:50;;;;;;;20.40;12.00;;;;;;;0.04;50.93;102240.10;116869;1189;21951;-49
2022/03/14 00:10:38;;;;;;;19.10;11.80;;;;;;;0.12;51.04;102243.75;116826;1189;21881;-48
2022/03/14 00:13:28;;;;;;;19.70;11.70;;;;;;;0.18;50.82;102244.44;116825;1189;21899;-62
2022/03/14 00:15:58;;;;;;;19.90;12.10;;;;;;;0.21;50.96;102243.74;116934;1189;23470;-50
2022/03/14 00:18:48;;;;;;;19.30;11.20;;;;;;;0.27;50.98;102249.48;116896;1188;23005;-61
2022/03/14 00:21:20;;;;;;;16.70;11.30;;;;;;;0.32;51.15;102246.79;116919;1188;23462;-61
2022/03/14 00:23:50;;;;;;;20.40;12.10;;;;;;;0.37;51.19;102246.41;116927;1188;23827;-62
2022/03/14 00:26:19;;;;;;;20.40;11.30;;;;;;;0.41;51.30;102247.41;116943;1188;22104;-50
2022/03/14 00:28:49;;;;;;;19.20;11.70;;;;;;;0.50;51.44;102242.30;116825;1189;23014;-50
2022/03/14 00:31:18;;;;;;;18.50;11.20;;;;;;;0.54;51.28;102242.75;116902;1187;22647;-61
2022/03/14 00:33:48;;;;;;;18.00;11.70;;;;;;;0.57;51.44;102241.55;116872;1189;21854;-50
2022/03/14 00:36:16;;;;;;;18.30;11.40;;;;;;;0.60;51.22;102238.08;116863;1189;21857;-62
2022/03/14 00:38:45;;;;;;;18.30;11.10;;;;;;;0.64;51.12;102238.48;116845;1186;23458;-50
2022/03/14 00:41:16;;;;;;;20.10;12.00;;;;;;;0.68;51.35;102233.70;116875;1189;23453;-62
2022/03/14 00:43:45;;;;;;;19.90;12.50;;;;;;;0.72;51.57;102236.02;116927;1190;22620;-51
2022/03/14 00:46:17;;;;;;;19.90;12.10;;;;;;;0.78;51.28;102234.45;116870;1188;22006;-63
2022/03/14 00:48:46;;;;;;;20.40;13.10;;;;;;;0.84;51.33;102234.79;116822;1189;21924;-50
2022/03/14 00:51:15;;;;;;;19.60;12.80;;;;;;;0.93;51.33;102240.98;116873;1189;23467;-50
2022/03/14 00:53:44;;;;;;;22.70;13.50;;;;;;;1.01;51.15;102244.91;116874;1189;21848;-62
2022/03/14 00:56:13;;;;;;;23.70;13.30;;;;;;;1.00;51.13;102247.12;116942;1186;21878;-63
2022/03/14 00:58:42;;;;;;;22.00;12.60;;;;;;;0.99;51.07;102246.36;116852;1188;23478;-63
2022/03/14 01:01:11;;;;;;;23.20;13.10;;;;;;;0.99;50.79;102251.70;116844;1187;23463;-51
2022/03/14 01:03:39;;;;;;;20.40;12.70;;;;;;;0.99;51.06;102248.98;116840;1189;23453;-62
2022/03/14 01:06:09;;;;;;;22.40;13.60;;;;;;;1.02;51.09;102251.70;116804;1186;23477;-62
2022/03/14 01:08:37;;;;;;;20.20;12.50;;;;;;;1.05;51.07;102255.31;116800;1189;23452;-62
2022/03/14 01:11:06;;;;;;;21.60;13.20;;;;;;;1.09;51.19;102257.08;116888;1189;23446;-50
2022/03/14 01:13:35;;;;;;;24.10;12.50;;;;;;;1.11;51.02;102259.32;116790;1190;21853;-50
2022/03/14 01:16:05;;;;;;;22.00;12.90;;;;;;;1.16;51.04;102259.91;116796;1189;23449;-50
2022/03/14 01:18:34;;;;;;;19.60;11.70;;;;;;;1.19;51.23;102259.41;116818;1189;22656;-63
2022/03/14 01:21:03;;;;;;;21.20;13.10;;;;;;;1.20;50.89;102261.52;116802;1189;23455;-62
2022/03/14 01:23:32;;;;;;;19.80;12.40;;;;;;;1.22;51.05;102262.33;116856;1189;23485;-63
2022/03/14 01:26:00;;;;;;;21.50;12.90;;;;;;;1.24;51.12;102264.70;116738;1189;23608;-50
2022/03/14 01:28:29;;;;;;;23.20;12.90;;;;;;;1.24;51.04;102266.95;116825;1189;23455;-62
2022/03/14 01:30:58;;;;;;;19.00;12.70;;;;;;;1.24;51.20;102263.67;116801;1189;23474;-62
2022/03/14 01:33:27;;;;;;;22.80;13.90;;;;;;;1.25;51.25;102264.94;116913;1184;23588;-63
2022/03/14 01:35:55;;;;;;;18.60;11.60;;;;;;;1.29;50.98;102268.95;116935;1188;21855;-50
2022/03/14 01:38:23;;;;;;;22.10;12.30;;;;;;;1.32;51.03;102271.56;116808;1189;21908;-51
2022/03/14 01:40:52;;;;;;;18.20;12.50;;;;;;;1.35;51.24;102277.75;116830;1189;23451;-51
2022/03/14 01:43:24;;;;;;;18.10;11.70;;;;;;;1.36;51.28;102280.39;116955;1188;24168;-63
2022/03/14 01:45:58;;;;;;;18.80;12.60;;;;;;;1.34;51.10;102284.80;116875;1188;24167;-62
2022/03/14 01:48:27;;;;;;;21.40;12.70;;;;;;;1.34;51.12;102292.44;117045;1188;22833;-51
2022/03/14 01:50:55;;;;;;;17.90;11.80;;;;;;;1.36;51.25;102291.83;116901;1188;24178;-63
2022/03/14 01:53:24;;;;;;;20.00;13.20;;;;;;;1.38;51.23;102295.94;116896;1188;23018;-62
2022/03/14 01:55:52;;;;;;;18.70;11.70;;;;;;;1.40;51.16;102292.20;116864;1183;23459;-62
2022/03/14 01:58:22;;;;;;;18.60;12.30;;;;;;;1.37;51.06;102297.79;116803;1189;23506;-51
2022/03/14 02:00:51;;;;;;;19.70;12.50;;;;;;;1.34;51.32;102296.58;116900;1188;21980;-52
2022/03/14 02:03:20;;;;;;;17.50;12.00;;;;;;;1.36;51.08;102298.89;116874;1188;21842;-62
2022/03/14 02:05:50;;;;;;;19.90;12.60;;;;;;;1.39;51.26;102296.34;116922;1187;23590;-50
2022/03/14 02:08:19;;;;;;;19.40;12.40;;;;;;;1.45;51.29;102296.27;116843;1188;23448;-50
2022/03/14 02:10:50;;;;;;;19.00;12.30;;;;;;;1.49;51.49;102301.58;116949;1188;21864;-50
2022/03/14 02:13:18;;;;;;;18.20;11.70;;;;;;;1.52;51.20;102303.94;116865;1188;22627;-51
2022/03/14 02:15:48;;;;;;;18.80;12.50;;;;;;;1.53;51.41;102304.39;116715;1192;21855;-51
2022/03/14 02:18:17;;;;;;;20.40;12.30;;;;;;;1.56;51.17;102309.72;116859;1192;21900;-51
2022/03/14 02:20:46;;;;;;;19.20;12.60;;;;;;;1.56;51.17;102310.41;116862;1189;24232;-62
2022/03/14 02:23:15;;;;;;;20.10;13.10;;;;;;;1.56;51.37;102315.44;116952;1188;21833;-50
2022/03/14 02:25:48;;;;;;;21.70;13.20;;;;;;;1.57;51.62;102314.27;116929;1189;24158;-61
2022/03/14 02:28:19;;;;;;;19.50;12.30;;;;;;;1.57;51.33;102315.99;116827;1185;21870;-55
2022/03/14 02:30:47;;;;;;;18.30;11.60;;;;;;;1.57;51.13;102316.38;116833;1189;21910;-61
2022/03/14 02:33:18;;;;;;;16.30;11.10;;;;;;;1.59;51.39;102318.71;116853;1188;21981;-50
2022/03/14 02:35:47;;;;;;;18.50;11.40;;;;;;;1.62;51.44;102325.45;116855;1189;22934;-62
2022/03/14 02:38:17;;;;;;;20.60;12.60;;;;;;;1.67;51.51;102327.42;116870;1187;23009;-62
2022/03/14 02:40:47;;;;;;;20.50;11.60;;;;;;;1.71;51.59;102327.00;116889;1189;23486;-61
2022/03/14 02:43:17;;;;;;;20.80;12.00;;;;;;;1.74;51.30;102325.23;116858;1189;21864;-62
2022/03/14 02:45:47;;;;;;;18.90;11.50;;;;;;;1.77;51.66;102326.63;116831;1189;21855;-61
2022/03/14 02:48:18;;;;;;;17.50;11.90;;;;;;;1.79;51.48;102330.88;116881;1189;21868;-50
2022/03/14 02:50:48;;;;;;;18.90;11.10;;;;;;;1.78;51.27;102337.73;116916;1187;21875;-50
2022/03/14 02:53:17;;;;;;;17.10;11.90;;;;;;;1.77;51.51;102340.84;116898;1189;21857;-61
2022/03/14 02:55:46;;;;;;;16.30;11.00;;;;;;;1.78;51.39;102339.65;116871;1189;23454;-61
2022/03/14 02:58:14;;;;;;;18.60;10.70;;;;;;;1.79;51.60;102337.30;116875;1186;21980;-49
2022/03/14 03:00:44;;;;;;;17.40;10.20;;;;;;;1.80;51.49;102341.48;116792;1189;22085;-50
2022/03/14 03:03:13;;;;;;;16.70;10.70;;;;;;;1.80;51.52;102340.11;116808;1189;21959;-61
2022/03/14 03:05:43;;;;;;;16.50;10.70;;;;;;;1.82;51.54;102341.58;116860;1189;22528;-62
2022/03/14 03:08:12;;;;;;;17.60;10.70;;;;;;;1.83;51.66;102341.47;116790;1189;21856;-49
2022/03/14 03:10:42;;;;;;;17.60;10.30;;;;;;;1.84;51.33;102344.81;116855;1190;21861;-61
2022/03/14 03:13:10;;;;;;;16.50;10.90;;;;;;;1.86;51.34;102350.84;116765;1190;22702;-49
2022/03/14 03:15:39;;;;;;;17.80;11.30;;;;;;;1.87;51.45;102347.96;116801;1186;21850;-50
2022/03/14 03:18:11;;;;;;;21.10;11.30;;;;;;;1.87;51.54;102348.83;116540;1189;22937;-60
2022/03/14 03:20:42;;;;;;;17.00;10.40;;;;;;;1.90;51.59;102347.93;116746;1189;21860;-60
2022/03/14 03:23:10;;;;;;;14.80;8.20;;;;;;;1.91;51.74;102350.07;116745;1189;21864;-61
2022/03/14 03:25:39;;;;;;;17.90;10.80;;;;;;;1.90;51.51;102354.86;116673;1186;22834;-60
2022/03/14 03:28:08;;;;;;;17.40;10.60;;;;;;;1.88;51.49;102352.16;116738;1190;23570;-49
2022/03/14 03:30:36;;;;;;;17.90;10.80;;;;;;;1.86;51.53;102352.58;116814;1188;23558;-60
2022/03/14 03:33:05;;;;;;;16.40;9.90;;;;;;;1.85;51.62;102356.83;116856;1189;23566;-61
2022/03/14 03:35:34;;;;;;;18.40;10.80;;;;;;;1.85;51.73;102357.84;116831;1188;22032;-61
2022/03/14 03:38:03;;;;;;;18.90;11.80;;;;;;;1.84;51.68;102359.39;116848;1189;23605;-60
2022/03/14 03:40:32;;;;;;;20.90;10.50;;;;;;;1.84;51.73;102360.25;116843;1185;21848;-50
2022/03/14 03:43:01;;;;;;;17.30;10.40;;;;;;;1.82;51.62;102360.65;116730;1189;21916;-49
2022/03/14 03:45:30;;;;;;;17.40;10.30;;;;;;;1.76;51.60;102366.73;116860;1188;21905;-62
2022/03/14 03:47:59;;;;;;;14.80;9.40;;;;;;;1.74;51.65;102372.84;116802;1189;22635;-60
2022/03/14 03:50:27;;;;;;;15.50;10.60;;;;;;;1.73;51.49;102371.73;116835;1189;22644;-49
2022/03/14 03:52:56;;;;;;;16.90;10.60;;;;;;;1.71;51.68;102375.44;116867;1189;22040;-49
2022/03/14 03:55:25;;;;;;;16.70;11.00;;;;;;;1.69;51.67;102375.66;116799;1189;22638;-50
2022/03/14 03:57:53;;;;;;;16.30;11.20;;;;;;;1.68;51.56;102374.94;116741;1189;23556;-49
2022/03/14 04:00:23;;;;;;;18.90;10.60;;;;;;;1.68;51.68;102380.63;116857;1189;23545;-61
2022/03/14 04:02:52;;;;;;;16.70;10.30;;;;;;;1.68;51.74;102379.44;116789;1189;23644;-49
2022/03/14 04:05:21;;;;;;;18.30;10.80;;;;;;;1.70;51.66;102380.58;116834;1189;23448;-49
2022/03/14 04:07:52;;;;;;;19.50;10.30;;;;;;;1.74;51.77;102381.88;116783;1189;22981;-49
2022/03/14 04:10:21;;;;;;;16.80;10.60;;;;;;;1.78;51.76;102381.20;116934;1189;23445;-49
2022/03/14 04:12:52;;;;;;;20.10;10.90;;;;;;;1.83;51.80;102385.77;116660;1186;21866;-61
2022/03/14 04:15:21;;;;;;;18.00;10.70;;;;;;;1.86;51.96;102388.73;116799;1189;22823;-50
2022/03/14 04:17:50;;;;;;;21.00;11.50;;;;;;;1.87;51.85;102383.96;116930;1188;23454;-50
2022/03/14 04:20:22;;;;;;;18.30;10.90;;;;;;;1.88;51.77;102386.77;116864;1189;22663;-50
2022/03/14 04:22:51;;;;;;;19.20;10.50;;;;;;;1.88;51.69;102389.70;116820;1185;23496;-50
2022/03/14 04:25:20;;;;;;;20.10;10.50;;;;;;;1.88;51.78;102391.13;116866;1189;23655;-49
2022/03/14 04:27:50;;;;;;;19.30;11.30;;;;;;;1.89;51.86;102396.73;116872;1189;22663;-50
2022/03/14 04:30:18;;;;;;;47.40;24.10;;;;;;;1.91;51.95;102398.36;116855;1188;23534;-64
2022/03/14 04:32:47;;;;;;;39.60;21.00;;;;;;;1.92;51.99;102402.95;116879;1184;23497;-49
2022/03/14 04:35:16;;;;;;;53.50;20.90;;;;;;;1.97;51.79;102404.91;116838;1189;23478;-64
2022/03/14 04:37:44;;;;;;;38.50;18.80;;;;;;;1.99;51.98;102404.69;116949;1188;24002;-50
2022/03/14 04:40:14;;;;;;;35.90;18.00;;;;;;;2.03;52.07;102410.48;116954;1188;23528;-50
2022/03/14 04:42:42;;;;;;;32.20;17.50;;;;;;;2.06;52.01;102413.23;117059;1189;21863;-64
2022/03/14 04:45:12;;;;;;;30.60;16.20;;;;;;;2.09;52.14;102415.97;116896;1188;23459;-65
2022/03/14 04:47:40;;;;;;;27.40;15.70;;;;;;;2.09;52.08;102416.83;116939;1188;23558;-50
2022/03/14 04:50:09;;;;;;;30.80;15.70;;;;;;;2.09;52.03;102419.11;116950;1184;21854;-63
2022/03/14 04:52:38;;;;;;;35.80;16.50;;;;;;;2.12;51.83;102422.05;116923;1188;22620;-64
2022/03/14 04:55:07;;;;;;;29.90;17.10;;;;;;;2.15;51.96;102426.85;116795;1189;23453;-64
2022/03/14 04:57:36;;;;;;;73.40;29.50;;;;;;;2.20;52.09;102427.46;116911;1188;23481;-51
2022/03/14 05:00:08;;;;;;;83.20;32.00;;;;;;;2.20;52.07;102428.38;116839;1188;21850;-62
2022/03/14 05:02:36;;;;;;;59.50;26.00;;;;;;;2.15;52.33;102428.25;116953;1188;22640;-51
2022/03/14 05:05:10;;;;;;;34.60;16.20;;;;;;;2.08;52.33;102428.23;116895;1188;23474;-51
2022/03/14 05:07:39;;;;;;;26.50;14.40;;;;;;;2.06;52.43;102433.45;116910;1188;23442;-62
2022/03/14 05:10:09;;;;;;;59.10;26.80;;;;;;;2.01;52.58;102437.69;116887;1186;21852;-51
2022/03/14 05:12:37;;;;;;;44.50;21.80;;;;;;;2.00;52.58;102442.68;116861;1188;22523;-51
2022/03/14 05:15:07;;;;;;;27.50;15.80;;;;;;;2.02;52.56;102443.63;116872;1188;23447;-51
2022/03/14 05:17:36;;;;;;;29.10;16.30;;;;;;;2.05;52.74;102446.22;116858;1189;23491;-62
2022/03/14 05:20:06;;;;;;;28.40;15.90;;;;;;;2.06;52.69;102450.77;116883;1188;21853;-63
2022/03/14 05:22:48;;;;;;;23.20;14.50;;;;;;;2.06;52.62;102454.45;116866;1189;21824;-51
2022/03/14 05:25:17;;;;;;;23.70;13.50;;;;;;;2.07;52.59;102455.54;116941;1187;21865;-55
2022/03/14 05:27:46;;;;;;;27.70;15.40;;;;;;;2.10;52.68;102457.59;116838;1189;21866;-50
2022/03/14 05:30:14;;;;;;;26.70;16.50;;;;;;;2.11;52.75;102458.17;116867;1189;21863;-50
2022/03/14 05:32:43;;;;;;;26.50;15.20;;;;;;;2.17;52.86;102457.30;116816;1190;21855;-51
2022/03/14 05:35:12;;;;;;;20.70;12.30;;;;;;;2.21;52.73;102455.43;116829;1190;23489;-51
2022/03/14 05:37:41;;;;;;;19.80;12.30;;;;;;;2.23;52.98;102461.42;116926;1189;23603;-62
2022/03/14 05:40:12;;;;;;;17.40;11.70;;;;;;;2.28;52.94;102464.62;116944;1189;23487;-62
2022/03/14 05:42:48;;;;;;;19.80;11.50;;;;;;;2.31;53.08;102463.45;116784;1189;22015;-62
2022/03/14 05:45:17;;;;;;;18.10;11.40;;;;;;;2.37;52.95;102468.93;116801;1189;23491;-51
2022/03/14 05:47:46;;;;;;;23.20;14.70;;;;;;;2.44;52.97;102473.30;116825;1189;21944;-52
2022/03/14 05:50:15;;;;;;;19.30;12.60;;;;;;;2.49;52.94;102475.34;116913;1189;23634;-50
2022/03/14 05:52:43;;;;;;;18.60;12.70;;;;;;;2.55;52.95;102470.08;116822;1189;23483;-51
2022/03/14 05:55:12;;;;;;;21.80;11.20;;;;;;;2.62;53.10;102471.70;116706;1189;25203;-50
2022/03/14 05:57:41;;;;;;;16.10;10.50;;;;;;;2.68;53.12;102473.75;116803;1185;23468;-61
2022/03/14 06:00:12;;;;;;;20.80;11.50;;;;;;;2.73;53.15;102478.17;116924;1188;21913;-61
2022/03/14 06:02:45;;;;;;;17.30;10.90;;;;;;;2.77;53.17;102480.44;116831;1189;21862;-51
2022/03/14 06:05:15;;;;;;;19.10;10.30;;;;;;;2.77;53.25;102483.05;116887;1188;21873;-61
2022/03/14 06:07:43;;;;;;;16.00;9.90;;;;;;;2.89;53.11;102484.73;116915;1189;22810;-61
2022/03/14 06:10:13;;;;;;;20.10;11.60;;;;;;;2.95;53.19;102484.33;116869;1189;23455;-62
2022/03/14 06:12:43;;;;;;;17.60;10.70;;;;;;;3.02;53.18;102484.56;116858;1189;23456;-50
2022/03/14 06:15:13;;;;;;;17.60;11.30;;;;;;;3.11;53.29;102479.95;116850;1188;21856;-61
2022/03/14 06:17:41;;;;;;;16.60;10.60;;;;;;;3.22;53.48;102479.65;116916;1189;21864;-50
2022/03/14 06:20:13;;;;;;;15.80;9.80;;;;;;;3.33;53.37;102481.09;116894;1189;23516;-61
2022/03/14 06:22:42;;;;;;;18.90;11.10;;;;;;;3.46;53.45;102478.83;116873;1188;23451;-61
2022/03/14 06:25:14;;;;;;;19.80;11.00;;;;;;;3.59;53.56;102484.12;116965;1188;21852;-51
2022/03/14 06:27:43;;;;;;;21.60;10.70;;;;;;;3.71;53.55;102479.35;116765;1189;21872;-50
2022/03/14 06:30:12;;;;;;;14.90;10.40;;;;;;;3.84;53.64;102483.65;116688;1189;22666;-52
2022/03/14 06:32:41;;;;;;;17.00;11.10;;;;;;;4.00;53.55;102488.05;116715;1189;24160;-62
2022/03/14 06:35:13;;;;;;;18.00;10.50;;;;;;;4.14;53.72;102493.27;116738;1189;23600;-62
2022/03/14 06:37:43;;;;;;;16.20;10.90;;;;;;;4.28;53.54;102495.47;116903;1189;22629;-61
2022/03/14 06:40:12;;;;;;;20.40;12.00;;;;;;;4.44;53.93;102492.20;116719;1186;21900;-62
2022/03/14 06:42:46;;;;;;;18.30;11.50;;;;;;;4.61;53.98;102492.33;116763;1190;22661;-51
2022/03/14 06:45:19;;;;;;;18.50;11.70;;;;;;;4.81;54.05;102495.11;116798;1189;22947;-50
2022/03/14 06:47:48;;;;;;;19.20;12.40;;;;;;;4.98;54.06;102504.23;116872;1189;21867;-61
2022/03/14 06:50:18;;;;;;;16.40;11.70;;;;;;;5.11;54.11;102503.77;117802;1188;21890;-63
2022/03/14 06:52:46;;;;;;;16.30;10.70;;;;;;;5.18;53.91;102508.45;116860;1189;21862;-50
2022/03/14 06:55:15;;;;;;;18.30;10.50;;;;;;;5.26;54.07;102511.20;116860;1189;23621;-62
2022/03/14 06:57:43;;;;;;;15.90;11.00;;;;;;;5.34;53.64;102511.53;116874;1189;21856;-51
2022/03/14 07:00:12;;;;;;;17.60;10.60;;;;;;;5.43;53.78;102511.93;116849;1187;21857;-53
2022/03/14 07:02:41;;;;;;;19.00;10.40;;;;;;;5.48;53.69;102512.35;116842;1188;21858;-53
2022/03/14 07:05:13;;;;;;;14.90;10.10;;;;;;;5.56;53.92;102515.79;116659;1189;21890;-63
2022/03/14 07:07:42;;;;;;;16.70;9.60;;;;;;;5.62;53.82;102516.42;116680;1189;22646;-52
2022/03/14 07:10:11;;;;;;;13.00;8.90;;;;;;;5.69;53.67;102517.92;116903;1188;24294;-63
2022/03/14 07:12:46;;;;;;;15.90;9.90;;;;;;;5.78;53.46;102518.46;117098;1189;21857;-52
2022/03/14 07:15:21;;;;;;;15.20;9.90;;;;;;;5.87;53.60;102514.12;116966;1188;23557;-64
2022/03/14 07:17:50;;;;;;;18.50;9.40;;;;;;;5.96;53.56;102508.40;116980;1189;22958;-64
2022/03/14 07:20:19;;;;;;;15.20;9.20;;;;;;;6.12;54.06;102509.27;116752;1189;23474;-51
2022/03/14 07:22:52;;;;;;;16.40;10.10;;;;;;;6.21;53.92;102508.02;116769;1189;21971;-51
2022/03/14 07:25:28;;;;;;;15.50;9.80;;;;;;;6.20;53.69;102507.99;116801;1189;21859;-64
2022/03/14 07:28:05;;;;;;;22.10;10.70;;;;;;;6.09;53.10;102510.01;116785;1180;21858;-51
2022/03/14 07:30:37;;;;;;;17.70;10.50;;;;;;;6.04;53.63;102509.95;116849;1189;23652;-52
2022/03/14 07:33:05;;;;;;;18.10;9.60;;;;;;;6.08;53.51;102517.27;116876;1188;21871;-65
2022/03/14 07:35:36;;;;;;;15.00;9.70;;;;;;;6.21;54.02;102519.19;117850;1189;23456;-64
2022/03/14 07:38:05;;;;;;;;;;;;;;;6.34;54.08;102520.59;117365;1189;22953;-51
2022/03/14 07:40:35;;;;;;;13.20;7.60;;;;;;;6.47;54.14;102525.27;116909;1189;23482;-61
2022/03/14 07:43:03;;;;;;;21.00;9.50;;;;;;;6.62;53.91;102527.25;116839;1189;22823;-51
2022/03/14 07:45:32;;;;;;;19.30;9.80;;;;;;;6.81;54.34;102524.45;116829;1190;22933;-52
2022/03/14 07:48:05;;;;;;;19.80;9.40;;;;;;;6.93;54.19;102523.51;116782;1190;21857;-62
2022/03/14 07:50:38;;;;;;;14.90;8.80;;;;;;;7.05;53.73;102519.94;116797;1189;21857;-62
2022/03/14 07:53:07;;;;;;;12.70;8.00;;;;;;;7.17;53.76;102519.48;116912;1189;23478;-62
2022/03/14 07:55:36;;;;;;;12.60;7.40;;;;;;;7.28;54.12;102518.83;116887;1184;21869;-62
2022/03/14 07:58:05;;;;;;;17.70;8.50;;;;;;;7.39;54.01;102516.09;116923;1188;22620;-67
2022/03/14 08:00:54;;;;;;;14.30;8.50;;;;;;;7.48;53.78;102522.85;116879;1189;21942;-64
2022/03/14 08:03:24;;;;;;;12.00;8.10;;;;;;;7.48;53.71;102522.52;116846;1189;21859;-64
2022/03/14 08:05:55;;;;;;;16.30;8.70;;;;;;;7.50;53.79;102523.42;116847;1179;23654;-63
2022/03/14 08:08:30;;;;;;;13.00;8.00;;;;;;;7.57;53.82;102524.56;116942;1189;22804;-66
2022/03/14 08:11:23;;;;;;;11.80;7.90;;;;;;;7.65;53.48;102525.88;116531;1189;23793;-64
2022/03/14 08:13:58;;;;;;;10.80;6.50;;;;;;;7.70;53.85;102524.65;116783;1188;21858;-52
2022/03/14 08:16:34;;;;;;;8.70;5.20;;;;;;;7.76;53.57;102525.57;116785;1188;22631;-65
2022/03/14 08:19:03;;;;;;;11.10;6.00;;;;;;;7.77;53.63;102520.54;116691;1190;22618;-65
2022/03/14 08:21:33;;;;;;;9.80;5.80;;;;;;;7.72;53.72;102519.13;116881;1189;22647;-64
2022/03/14 08:24:01;;;;;;;10.40;6.20;;;;;;;7.70;53.63;102521.35;116839;1187;22919;-65
2022/03/14 08:26:32;;;;;;;11.60;5.70;;;;;;;7.71;53.43;102521.88;116894;1188;21919;-52
2022/03/14 08:29:01;;;;;;;10.40;6.60;;;;;;;7.65;53.51;102525.88;116805;1184;22949;-66
2022/03/14 08:31:31;;;;;;;11.80;7.10;;;;;;;7.59;53.29;102527.05;116926;1184;23035;-52
2022/03/14 08:34:14;;;;;;;9.50;6.50;;;;;;;7.52;53.31;102526.98;116888;1189;21873;-66
2022/03/14 08:36:43;;;;;;;12.20;7.40;;;;;;;7.49;53.33;102530.23;116926;1189;24168;-55
2022/03/14 08:39:12;;;;;;;12.70;7.10;;;;;;;7.45;53.26;102529.40;116713;1190;22918;-64
2022/03/14 08:41:42;;;;;;;16.10;9.40;;;;;;;7.41;53.64;102530.11;116694;1189;21860;-62
2022/03/14 08:44:11;;;;;;;12.70;7.60;;;;;;;7.41;53.19;102525.92;116858;1189;21923;-65
2022/03/14 08:46:39;;;;;;;16.40;8.80;;;;;;;7.49;53.42;102529.36;116864;1189;23483;-53
2022/03/14 08:49:08;;;;;;;16.50;10.40;;;;;;;7.52;53.18;102529.79;116868;1189;21853;-63
2022/03/14 08:51:39;;;;;;;16.30;8.00;;;;;;;7.53;53.17;102526.33;116871;1189;21883;-63
2022/03/14 08:54:09;;;;;;;12.90;8.50;;;;;;;7.50;53.31;102523.62;116914;1189;22753;-54
2022/03/14 08:56:37;;;;;;;14.80;8.60;;;;;;;7.50;53.39;102529.02;116841;1189;21850;-65
2022/03/14 08:59:06;;;;;;;13.30;8.50;;;;;;;7.65;53.64;102520.27;116775;1189;22936;-64
2022/03/14 09:01:34;;;;;;;12.70;7.50;;;;;;;7.95;54.15;102516.04;116839;1189;23524;-64
2022/03/14 09:04:05;;;;;;;12.90;7.50;;;;;;;8.31;54.18;102510.54;116836;1186;23474;-53
2022/03/14 09:06:36;;;;;;;;;;;;;;;8.51;54.28;102505.40;116881;1189;21842;-63
2022/03/14 09:09:05;;;;;;;11.80;6.40;;;;;;;8.67;54.28;102500.98;116676;1189;22576;-54
2022/03/14 09:11:34;;;;;;;14.80;7.30;;;;;;;8.92;54.15;102499.27;116841;1189;23569;-55
2022/03/14 09:14:03;;;;;;;10.60;6.90;;;;;;;9.14;54.10;102497.06;116901;1185;23569;-64
2022/03/14 09:16:35;;;;;;;12.00;7.90;;;;;;;9.32;54.05;102490.19;116760;1186;22660;-56
2022/03/14 09:19:08;;;;;;;13.50;8.60;;;;;;;9.53;54.03;102488.45;116893;1188;23576;-63
2022/03/14 09:21:37;;;;;;;10.70;6.30;;;;;;;9.65;53.89;102479.98;116651;1189;21859;-54
2022/03/14 09:24:06;;;;;;;11.60;6.00;;;;;;;9.79;53.93;102478.41;116813;1189;22820;-55
2022/03/14 09:26:37;;;;;;;10.70;6.50;;;;;;;9.94;53.79;102475.61;116919;1186;21856;-64
2022/03/14 09:29:08;;;;;;;11.00;6.90;;;;;;;10.04;53.76;102475.67;116924;1188;23456;-64
2022/03/14 09:31:36;;;;;;;10.00;6.60;;;;;;;10.32;53.92;102473.33;116713;1189;22044;-55
2022/03/14 09:34:06;;;;;;;14.90;7.70;;;;;;;10.60;54.07;102466.59;116834;1188;23484;-55
2022/03/14 09:36:35;;;;;;;12.20;7.10;;;;;;;10.89;54.27;102466.64;116795;1189;23560;-55
2022/03/14 09:39:04;;;;;;;9.90;6.10;;;;;;;11.12;53.88;102466.38;116795;1187;21852;-63
2022/03/14 09:41:34;;;;;;;8.50;5.50;;;;;;;11.21;53.61;102465.15;116855;1189;23571;-63
2022/03/14 09:44:03;;;;;;;10.30;6.00;;;;;;;11.23;53.28;102465.02;116558;1190;21877;-64
2022/03/14 09:46:34;;;;;;;9.60;5.70;;;;;;;11.28;53.31;102469.13;116728;1189;23557;-55
2022/03/14 09:49:03;;;;;;;9.10;5.40;;;;;;;11.34;53.39;102465.02;116855;1189;22649;-55
2022/03/14 09:51:31;;;;;;;20.30;12.40;;;;;;;11.32;52.97;102460.77;116719;1189;23601;-54
2022/03/14 09:54:01;;;;;;;8.80;5.90;;;;;;;11.19;52.55;102460.02;116833;1184;22929;-63
2022/03/14 09:56:30;;;;;;;9.70;6.20;;;;;;;10.95;52.40;102455.68;116757;1189;22101;-55
2022/03/14 09:59:02;;;;;;;9.30;5.60;;;;;;;10.71;52.44;102456.79;116848;1189;22879;-62
2022/03/14 10:01:30;;;;;;;9.00;5.80;;;;;;;10.39;52.10;102456.30;116872;1189;23453;-54
2022/03/14 10:04:01;;;;;;;8.30;5.20;;;;;;;10.13;52.21;102457.80;116767;1189;21857;-63
2022/03/14 10:06:30;;;;;;;8.30;5.70;;;;;;;9.99;52.26;102456.42;116873;1189;22919;-63
2022/03/14 10:08:59;;;;;;;11.60;6.80;;;;;;;9.97;52.50;102452.89;116798;1189;22813;-63
2022/03/14 10:11:28;;;;;;;10.40;7.10;;;;;;;9.96;52.42;102455.33;116778;1190;22932;-63
2022/03/14 10:13:57;;;;;;;9.50;6.00;;;;;;;9.92;52.33;102450.14;116861;1189;23487;-64
2022/03/14 10:16:25;;;;;;;10.90;6.50;;;;;;;9.82;52.12;102450.24;116777;1189;22547;-62
2022/03/14 10:19:01;;;;;;;8.90;6.00;;;;;;;9.69;52.17;102449.06;116943;1189;24168;-55
2022/03/14 10:21:38;;;;;;;9.80;6.00;;;;;;;9.56;51.91;102449.60;116751;1189;21934;-54
2022/03/14 10:24:08;;;;;;;8.40;5.60;;;;;;;9.45;51.94;102447.59;116909;1189;22322;-54
2022/03/14 10:26:44;;;;;;;9.60;5.40;;;;;;;9.44;51.99;102450.00;116929;1189;23560;-54
2022/03/14 10:29:13;;;;;;;9.40;5.80;;;;;;;9.43;52.12;102443.87;116946;1188;23561;-54
2022/03/14 10:31:45;;;;;;;9.70;5.90;;;;;;;9.47;52.19;102443.27;116792;1189;22845;-54
2022/03/14 10:34:18;;;;;;;9.30;6.10;;;;;;;9.51;52.24;102445.29;116839;1184;22935;-62
2022/03/14 10:36:47;;;;;;;9.00;5.60;;;;;;;9.55;52.18;102446.95;116758;1189;22917;-54
2022/03/14 10:39:25;;;;;;;8.60;5.60;;;;;;;9.54;52.04;102444.31;116942;1189;21865;-63
2022/03/14 10:42:03;;;;;;;8.60;5.30;;;;;;;9.53;52.06;102446.38;116923;1189;21891;-64
2022/03/14 10:44:50;;;;;;;8.40;5.30;;;;;;;9.53;52.03;102443.41;116936;1189;23630;-63
2022/03/14 10:47:19;;;;;;;10.40;5.90;;;;;;;9.55;52.04;102441.52;116910;1187;21861;-63
2022/03/14 10:49:49;;;;;;;9.30;5.90;;;;;;;9.55;52.04;102439.95;116925;1188;21937;-64
2022/03/14 10:52:20;;;;;;;8.50;5.10;;;;;;;9.53;51.98;102440.60;116954;1189;21862;-55
2022/03/14 10:54:50;;;;;;;17.50;11.10;;;;;;;9.51;52.11;102436.34;116870;1189;21903;-65
2022/03/14 10:57:28;;;;;;;18.20;11.50;;;;;;;9.50;51.97;102437.70;116854;1189;23497;-64
2022/03/14 10:59:57;;;;;;;13.60;8.80;;;;;;;9.44;51.88;102435.49;116891;1189;21860;-64
2022/03/14 11:02:26;;;;;;;12.60;8.60;;;;;;;9.41;51.94;102435.20;116925;1189;21864;-64
2022/03/14 11:04:59;;;;;;;9.90;7.10;;;;;;;9.37;51.95;102437.40;116973;1189;21865;-55
2022/03/14 11:07:33;;;;;;;13.80;8.40;;;;;;;9.33;51.87;102435.73;116909;1189;21867;-55
2022/03/14 11:10:04;;;;;;;16.40;10.20;;;;;;;9.21;51.85;102440.67;116873;1189;24846;-63
2022/03/14 11:12:33;;;;;;;14.60;8.50;;;;;;;9.04;51.64;102435.67;116926;1190;21889;-55
2022/03/14 11:15:07;;;;;;;12.50;8.40;;;;;;;8.91;51.60;102432.17;116932;1189;22115;-54
2022/03/14 11:17:37;;;;;;;13.40;9.10;;;;;;;8.86;51.68;102432.72;116838;1189;22660;-63
2022/03/14 11:20:26;;;;;;;17.60;12.70;;;;;;;8.83;51.77;102431.59;117009;1189;23454;-55
2022/03/14 11:22:55;;;;;;;15.50;10.70;;;;;;;8.80;51.65;102429.77;116700;1189;23555;-63
2022/03/14 11:25:23;;;;;;;23.40;14.80;;;;;;;8.84;51.72;102427.23;116675;1190;23558;-63